createdAt,value
2022-11-27T00:00:39.880Z,61.23
2022-11-27T00:02:42.062Z,61.44
2022-11-27T00:04:44.593Z,61.51
2022-11-27T00:06:46.764Z,61.44
2022-11-27T00:08:49.808Z,61.09
2022-11-27T00:10:52.564Z,61.35
2022-11-27T00:12:56.046Z,61.38
2022-11-27T00:14:58.133Z,61.85
2022-11-27T00:17:01.256Z,61.72
2022-11-27T00:19:03.493Z,61.46
2022-11-27T00:21:08.411Z,61.78
2022-11-27T00:23:10.928Z,61.90
2022-11-27T00:25:12.942Z,62.13
2022-11-27T00:27:15.057Z,61.79
2022-11-27T00:29:17.129Z,62.35
2022-11-27T00:31:22.257Z,62.16
2022-11-27T00:33:24.912Z,62.15
2022-11-27T00:35:26.958Z,62.71
2022-11-27T00:37:29.052Z,63.29
2022-11-27T00:39:31.276Z,62.92
2022-11-27T00:41:33.615Z,63.05
2022-11-27T00:43:44.237Z,62.68
2022-11-27T00:45:50.209Z,62.92
2022-11-27T00:47:52.121Z,62.84
2022-11-27T00:49:54.495Z,63.03
2022-11-27T00:51:56.386Z,62.97
2022-11-27T00:53:58.714Z,62.49
2022-11-27T00:56:00.932Z,62.92
2022-11-27T00:58:03.150Z,62.71
2022-11-27T01:00:07.046Z,62.59
2022-11-27T01:02:11.965Z,63.03
2022-11-27T01:04:15.938Z,62.92
2022-11-27T01:06:19.915Z,63.29
2022-11-27T01:08:22.211Z,62.88
2022-11-27T01:10:24.438Z,63.34
2022-11-27T01:12:26.508Z,62.85
2022-11-27T01:14:28.606Z,63.13
2022-11-27T01:16:33.272Z,63.70
2022-11-27T01:18:37.259Z,63.59
2022-11-27T01:20:40.900Z,63.71
2022-11-27T01:22:42.949Z,63.45
2022-11-27T01:24:45.349Z,63.28
2022-11-27T01:26:47.575Z,63.76
2022-11-27T01:28:53.309Z,63.62
2022-11-27T01:30:56.311Z,63.73
2022-11-27T01:32:58.324Z,64.08
2022-11-27T01:35:00.326Z,64.03
2022-11-27T01:37:03.391Z,64.03
2022-11-27T01:39:05.691Z,63.77
2022-11-27T01:41:17.920Z,63.64
2022-11-27T01:43:38.107Z,63.83
2022-11-27T01:45:40.274Z,63.85
2022-11-27T01:47:55.376Z,64.35
2022-11-27T01:50:21.621Z,64.15
2022-11-27T01:52:30.131Z,63.85
2022-11-27T01:54:58.603Z,64.67
2022-11-27T01:57:07.237Z,63.85
2022-11-27T01:59:09.545Z,64.12
2022-11-27T02:01:11.574Z,63.82
2022-11-27T02:03:13.711Z,63.82
2022-11-27T02:05:22.175Z,63.68
2022-11-27T02:07:24.885Z,63.99
2022-11-27T02:09:29.957Z,63.91
2022-11-27T02:11:42.591Z,63.96
2022-11-27T02:13:52.707Z,63.62
2022-11-27T02:16:24.545Z,63.49
2022-11-27T02:18:57.823Z,63.66
2022-11-27T02:21:27.732Z,63.92
2022-11-27T02:23:35.642Z,63.35
2022-11-27T02:25:49.766Z,63.56
2022-11-27T02:28:12.367Z,63.64
2022-11-27T02:30:14.838Z,63.19
2022-11-27T02:32:43.162Z,63.70
2022-11-27T02:35:00.366Z,63.88
2022-11-27T02:37:14.025Z,63.95
2022-11-27T02:39:22.407Z,63.46
2022-11-27T02:41:30.600Z,64.08
2022-11-27T02:43:45.489Z,64.36
2022-11-27T02:45:51.480Z,63.94
2022-11-27T02:47:56.236Z,63.98
2022-11-27T02:50:00.309Z,63.66
2022-11-27T02:52:04.130Z,64.09
2022-11-27T02:54:12.365Z,64.03
2022-11-27T02:56:18.834Z,64.20
2022-11-27T02:58:25.306Z,63.63
2022-11-27T03:00:28.883Z,63.66
2022-11-27T03:02:42.078Z,63.37
2022-11-27T03:04:50.197Z,63.94
2022-11-27T03:06:58.305Z,64.06
2022-11-27T03:09:03.556Z,64.05
2022-11-27T03:11:09.477Z,64.06
2022-11-27T03:13:12.064Z,64.05
2022-11-27T03:15:14.536Z,63.75
2022-11-27T03:17:56.868Z,63.89
2022-11-27T03:20:16.766Z,63.89
2022-11-27T03:22:19.284Z,63.91
2022-11-27T03:24:21.624Z,63.92
2022-11-27T03:26:23.883Z,63.98
2022-11-27T03:28:28.812Z,63.84
2022-11-27T03:30:31.636Z,63.63
2022-11-27T03:32:34.926Z,64.05
2022-11-27T03:34:37.662Z,63.91
2022-11-27T03:36:40.040Z,63.81
2022-11-27T03:38:43.824Z,63.95
2022-11-27T03:40:56.326Z,63.91
2022-11-27T03:43:13.756Z,63.81
2022-11-27T03:45:21.688Z,63.79
2022-11-27T03:47:38.789Z,64.14
2022-11-27T03:50:11.397Z,64.54
2022-11-27T03:52:27.875Z,63.79
2022-11-27T03:54:32.829Z,63.62
2022-11-27T03:56:49.207Z,64.03
2022-11-27T03:59:23.258Z,64.18
2022-11-27T04:01:27.433Z,63.82
2022-11-27T04:03:32.008Z,64.24
2022-11-27T04:05:34.239Z,64.31
2022-11-27T04:07:36.735Z,64.07
2022-11-27T04:09:38.790Z,63.97
2022-11-27T04:11:40.785Z,64.34
2022-11-27T04:13:43.221Z,64.31
2022-11-27T04:15:48.722Z,64.10
2022-11-27T04:17:50.958Z,64.05
2022-11-27T04:19:53.135Z,64.45
2022-11-27T04:21:55.455Z,64.04
2022-11-27T04:23:57.417Z,64.20
2022-11-27T04:25:59.526Z,64.23
2022-11-27T04:28:01.614Z,64.08
2022-11-27T04:30:04.528Z,64.29
2022-11-27T04:32:06.992Z,64.44
2022-11-27T04:34:09.136Z,64.06
2022-11-27T04:36:11.173Z,64.34
2022-11-27T04:38:13.835Z,64.28
2022-11-27T04:40:16.502Z,64.04
2022-11-27T04:42:18.652Z,64.29
2022-11-27T04:44:24.627Z,64.06
2022-11-27T04:46:27.057Z,64.27
2022-11-27T04:48:29.227Z,64.29
2022-11-27T04:50:31.349Z,64.90
2022-11-27T04:52:33.615Z,64.28
2022-11-27T04:54:38.321Z,64.42
2022-11-27T04:56:40.437Z,64.32
2022-11-27T04:58:42.544Z,64.17
2022-11-27T05:00:44.744Z,63.90
2022-11-27T05:02:49.484Z,63.96
2022-11-27T05:04:51.477Z,64.43
2022-11-27T05:06:53.604Z,64.14
2022-11-27T05:09:02.281Z,64.45
2022-11-27T05:11:11.529Z,65.00
2022-11-27T05:13:13.705Z,65.12
2022-11-27T05:15:16.142Z,64.57
2022-11-27T05:17:18.277Z,64.74
2022-11-27T05:19:22.555Z,64.76
2022-11-27T05:21:24.721Z,64.54
2022-11-27T05:23:27.353Z,64.58
2022-11-27T05:25:29.439Z,64.44
2022-11-27T05:27:31.557Z,64.96
2022-11-27T05:29:33.812Z,64.74
2022-11-27T05:31:36.819Z,64.69
2022-11-27T05:33:41.419Z,64.72
2022-11-27T05:35:43.377Z,65.09
2022-11-27T05:37:45.611Z,65.05
2022-11-27T05:39:47.775Z,64.63
2022-11-27T05:41:49.860Z,64.96
2022-11-27T05:43:52.155Z,64.90
2022-11-27T05:45:54.250Z,65.04
2022-11-27T05:47:56.379Z,64.61
2022-11-27T05:49:58.547Z,64.29
2022-11-27T05:52:00.977Z,64.41
2022-11-27T05:54:02.978Z,64.50
2022-11-27T05:56:08.351Z,65.04
2022-11-27T05:58:10.428Z,64.85
2022-11-27T06:00:13.247Z,64.78
2022-11-27T06:02:20.848Z,64.86
2022-11-27T06:04:26.039Z,65.02
2022-11-27T06:06:28.574Z,64.63
2022-11-27T06:08:30.784Z,64.92
2022-11-27T06:10:33.337Z,65.13
2022-11-27T06:12:35.552Z,64.92
2022-11-27T06:14:38.034Z,65.09
2022-11-27T06:16:40.348Z,65.16
2022-11-27T06:18:43.491Z,65.00
2022-11-27T06:20:52.795Z,64.49
2022-11-27T06:22:57.229Z,64.58
2022-11-27T06:24:59.341Z,64.84
2022-11-27T06:27:01.423Z,64.93
2022-11-27T06:29:03.538Z,64.95
2022-11-27T06:31:07.638Z,64.60
2022-11-27T06:33:10.126Z,64.43
2022-11-27T06:35:14.749Z,65.03
2022-11-27T06:37:17.141Z,64.80
2022-11-27T06:39:20.130Z,64.80
2022-11-27T06:41:27.562Z,64.76
2022-11-27T06:43:30.893Z,64.98
2022-11-27T06:45:33.251Z,64.99
2022-11-27T06:47:35.365Z,64.52
2022-11-27T06:49:37.652Z,64.21
2022-11-27T06:51:40.041Z,64.51
2022-11-27T06:53:42.576Z,64.94
2022-11-27T06:55:44.928Z,64.96
2022-11-27T06:57:49.882Z,64.60
2022-11-27T06:59:52.018Z,65.01
2022-11-27T07:01:54.237Z,65.08
2022-11-27T07:03:57.243Z,65.41
2022-11-27T07:06:03.821Z,65.41
2022-11-27T07:08:06.110Z,65.11
2022-11-27T07:10:08.913Z,64.86
2022-11-27T07:12:11.325Z,64.93
2022-11-27T07:14:13.601Z,64.58
2022-11-27T07:16:16.899Z,64.57
2022-11-27T07:18:19.017Z,64.72
2022-11-27T07:20:21.235Z,65.06
2022-11-27T07:22:23.271Z,64.65
2022-11-27T07:24:25.327Z,64.91
2022-11-27T07:26:30.657Z,64.75
2022-11-27T07:28:32.745Z,65.54
2022-11-27T07:30:34.861Z,64.80
2022-11-27T07:32:36.735Z,64.82
2022-11-27T07:34:39.010Z,64.74
2022-11-27T07:36:41.227Z,64.49
2022-11-27T07:38:44.084Z,64.41
2022-11-27T07:40:45.994Z,64.25
2022-11-27T07:42:48.250Z,64.01
2022-11-27T07:44:52.535Z,64.08
2022-11-27T07:46:54.764Z,64.38
2022-11-27T07:48:59.517Z,64.83
2022-11-27T07:51:01.785Z,64.86
2022-11-27T07:53:03.804Z,65.21
2022-11-27T07:55:06.064Z,64.87
2022-11-27T07:57:08.376Z,64.72
2022-11-27T07:59:13.437Z,65.07
2022-11-27T08:01:17.967Z,64.29
2022-11-27T08:03:19.964Z,64.43
2022-11-27T08:05:22.194Z,64.17
2022-11-27T08:07:29.497Z,63.93
2022-11-27T08:09:31.573Z,63.82
2022-11-27T08:11:35.376Z,63.44
2022-11-27T08:13:37.682Z,63.47
2022-11-27T08:15:39.774Z,63.96
2022-11-27T08:17:44.983Z,64.22
2022-11-27T08:19:47.010Z,64.19
2022-11-27T08:21:49.009Z,64.23
2022-11-27T08:23:50.978Z,64.36
2022-11-27T08:25:52.815Z,64.80
2022-11-27T08:27:54.936Z,65.13
2022-11-27T08:29:56.750Z,65.28
2022-11-27T08:31:58.845Z,65.64
2022-11-27T08:34:00.876Z,65.43
2022-11-27T08:36:03.436Z,65.26
2022-11-27T08:38:05.522Z,65.16
2022-11-27T08:40:08.529Z,65.78
2022-11-27T08:42:10.351Z,65.22
2022-11-27T08:44:12.457Z,64.74
2022-11-27T08:46:14.489Z,64.32
2022-11-27T08:48:17.087Z,63.76
2022-11-27T08:50:19.310Z,63.85
2022-11-27T08:52:23.728Z,64.52
2022-11-27T08:54:25.890Z,64.13
2022-11-27T08:56:28.448Z,64.04
2022-11-27T08:58:33.668Z,64.17
2022-11-27T09:00:37.318Z,63.98
2022-11-27T09:02:39.532Z,63.76
2022-11-27T09:04:41.876Z,63.75
2022-11-27T09:06:44.132Z,64.23
2022-11-27T09:08:46.201Z,64.05
2022-11-27T09:10:48.651Z,63.93
2022-11-27T09:12:50.936Z,63.93
2022-11-27T09:14:53.224Z,63.76
2022-11-27T09:16:55.461Z,63.86
2022-11-27T09:18:58.614Z,63.70
2022-11-27T09:21:07.544Z,63.59
2022-11-27T09:23:14.380Z,63.15
2022-11-27T09:25:17.284Z,63.02
2022-11-27T09:27:19.350Z,62.65
2022-11-27T09:29:21.884Z,62.48
2022-11-27T09:31:24.348Z,62.84
2022-11-27T09:33:28.702Z,62.86
2022-11-27T09:35:30.737Z,62.72
2022-11-27T09:37:33.306Z,62.62
2022-11-27T09:39:36.110Z,62.17
2022-11-27T09:41:51.794Z,63.13
2022-11-27T09:43:58.166Z,63.13
2022-11-27T09:46:09.309Z,63.27
2022-11-27T09:48:19.040Z,62.97
2022-11-27T09:50:28.840Z,63.20
2022-11-27T09:52:41.869Z,62.97
2022-11-27T09:54:55.785Z,62.82
2022-11-27T09:57:00.985Z,62.89
2022-11-27T09:59:09.274Z,62.35
2022-11-27T10:01:11.706Z,62.33
2022-11-27T10:03:15.912Z,61.66
2022-11-27T10:05:24.468Z,62.07
2022-11-27T10:07:52.326Z,61.93
2022-11-27T10:10:08.904Z,61.38
2022-11-27T10:12:30.426Z,61.31
2022-11-27T10:14:49.681Z,60.58
2022-11-27T10:17:00.082Z,60.12
2022-11-27T10:19:09.273Z,60.25
2022-11-27T10:21:39.408Z,59.86
2022-11-27T10:23:46.482Z,59.66
2022-11-27T10:25:50.993Z,59.39
2022-11-27T10:28:30.636Z,58.38
2022-11-27T10:30:39.673Z,58.64
2022-11-27T10:32:58.469Z,59.66
2022-11-27T10:35:12.473Z,59.85
2022-11-27T10:37:17.976Z,59.32
2022-11-27T10:39:33.098Z,58.80
2022-11-27T10:41:49.339Z,58.78
2022-11-27T10:43:57.278Z,58.40
2022-11-27T10:46:19.243Z,57.59
2022-11-27T10:48:24.396Z,57.92
2022-11-27T10:50:26.551Z,57.17
2022-11-27T10:52:28.678Z,57.39
2022-11-27T10:54:34.711Z,57.01
2022-11-27T10:57:00.795Z,56.64
2022-11-27T10:59:35.025Z,57.44
2022-11-27T11:01:49.727Z,57.88
2022-11-27T11:04:18.675Z,58.04
2022-11-27T11:06:27.771Z,58.84
2022-11-27T11:08:30.276Z,59.11
2022-11-27T11:10:44.799Z,59.14
2022-11-27T11:12:47.057Z,59.01
2022-11-27T11:14:59.339Z,59.24
2022-11-27T11:17:01.502Z,59.82
2022-11-27T11:19:04.132Z,59.90
2022-11-27T11:21:07.929Z,59.95
2022-11-27T11:23:27.386Z,60.09
2022-11-27T11:25:29.707Z,60.17
2022-11-27T11:27:32.476Z,60.35
2022-11-27T11:29:47.252Z,60.70
2022-11-27T11:31:52.603Z,60.71
2022-11-27T11:34:25.106Z,60.66
2022-11-27T11:36:27.249Z,60.26
2022-11-27T11:38:32.487Z,60.71
2022-11-27T11:40:36.891Z,60.51
2022-11-27T11:42:50.931Z,60.18
2022-11-27T11:44:56.182Z,59.91
2022-11-27T11:46:58.619Z,59.63
2022-11-27T11:49:18.450Z,60.07
2022-11-27T11:51:38.951Z,59.52
2022-11-27T11:53:50.359Z,60.23
2022-11-27T11:56:17.115Z,60.27
2022-11-27T11:58:46.410Z,60.27
2022-11-27T12:03:41.564Z,60.53
2022-11-27T12:05:46.747Z,60.28
2022-11-27T12:08:15.328Z,60.33
2022-11-27T12:10:20.271Z,60.67
2022-11-27T12:12:50.176Z,60.42
2022-11-27T12:14:58.103Z,60.77
2022-11-27T12:17:38.795Z,60.82
2022-11-27T12:20:02.604Z,60.50
2022-11-27T12:22:40.487Z,60.88
2022-11-27T12:25:10.829Z,60.85
2022-11-27T12:27:38.520Z,61.27
2022-11-27T12:30:12.328Z,61.13
2022-11-27T12:32:40.931Z,60.93
2022-11-27T12:35:01.615Z,61.05
2022-11-27T12:37:48.193Z,61.12
2022-11-27T12:39:50.522Z,61.30
2022-11-27T12:42:27.780Z,60.24
2022-11-27T12:44:51.429Z,60.19
2022-11-27T12:47:25.612Z,60.05
2022-11-27T12:49:46.521Z,60.03
2022-11-27T12:51:54.323Z,60.11
2022-11-27T12:54:03.334Z,60.27
2022-11-27T12:56:17.297Z,60.51
2022-11-27T12:58:27.634Z,59.79
2022-11-27T13:00:32.174Z,59.71
2022-11-27T13:03:11.096Z,60.04
2022-11-27T13:05:26.924Z,60.05
2022-11-27T13:07:40.426Z,60.20
2022-11-27T13:10:06.068Z,60.57
2022-11-27T13:12:11.666Z,60.61
2022-11-27T13:14:18.628Z,60.72
2022-11-27T13:16:32.925Z,60.74
2022-11-27T13:18:46.547Z,60.78
2022-11-27T13:20:52.767Z,61.17
2022-11-27T13:22:55.137Z,61.11
2022-11-27T13:25:01.737Z,61.24
2022-11-27T13:27:13.036Z,61.29
2022-11-27T13:29:33.505Z,61.02
2022-11-27T13:31:39.564Z,61.58
2022-11-27T13:33:44.904Z,61.52
2022-11-27T13:35:50.834Z,61.69
2022-11-27T13:38:07.883Z,61.63
2022-11-27T13:40:13.085Z,61.16
2022-11-27T13:42:22.591Z,61.45
2022-11-27T13:44:30.494Z,61.43
2022-11-27T13:46:45.696Z,61.46
2022-11-27T13:49:03.884Z,61.63
2022-11-27T13:51:08.586Z,61.56
2022-11-27T13:53:12.811Z,61.77
2022-11-27T13:55:30.842Z,62.09
2022-11-27T13:57:36.730Z,61.77
2022-11-27T13:59:39.637Z,62.10
2022-11-27T14:01:55.684Z,62.42
2022-11-27T14:04:08.770Z,62.09
2022-11-27T14:06:30.880Z,61.94
2022-11-27T14:08:35.857Z,61.83
2022-11-27T14:10:50.312Z,61.97
2022-11-27T14:12:57.009Z,61.61
2022-11-27T14:15:10.522Z,61.78
2022-11-27T14:17:34.219Z,61.60
2022-11-27T14:19:45.735Z,61.98
2022-11-27T14:21:48.472Z,61.92
2022-11-27T14:23:52.939Z,61.66
2022-11-27T14:26:15.683Z,62.10
2022-11-27T14:28:26.452Z,61.72
2022-11-27T14:30:40.184Z,61.82
2022-11-27T14:32:42.710Z,62.22
2022-11-27T14:34:47.250Z,62.17
2022-11-27T14:36:52.820Z,62.10
2022-11-27T14:38:54.834Z,62.36
2022-11-27T14:41:18.427Z,62.04
2022-11-27T14:43:26.363Z,61.71
2022-11-27T14:45:30.424Z,61.73
2022-11-27T14:47:32.910Z,62.23
2022-11-27T14:49:35.017Z,62.04
2022-11-27T14:51:38.769Z,62.00
2022-11-27T14:53:41.772Z,62.15
2022-11-27T14:55:44.347Z,62.18
2022-11-27T14:57:49.195Z,62.29
2022-11-27T15:00:16.859Z,62.57
2022-11-27T15:02:23.337Z,62.34
2022-11-27T15:04:36.076Z,62.75
2022-11-27T15:06:46.370Z,62.79
2022-11-27T15:09:02.942Z,62.54
2022-11-27T15:11:35.915Z,62.92
2022-11-27T15:13:39.004Z,63.21
2022-11-27T15:15:45.101Z,62.66
2022-11-27T15:17:51.701Z,62.86
2022-11-27T15:19:55.668Z,62.81
2022-11-27T15:21:58.652Z,62.78
2022-11-27T15:24:01.576Z,62.79
2022-11-27T15:26:16.048Z,62.90
2022-11-27T15:28:42.052Z,62.90
2022-11-27T15:30:45.466Z,62.87
2022-11-27T15:32:56.379Z,62.81
2022-11-27T15:34:58.327Z,62.59
2022-11-27T15:37:06.558Z,62.40
2022-11-27T15:39:25.895Z,62.46
2022-11-27T15:41:32.325Z,62.56
2022-11-27T15:43:34.540Z,62.73
2022-11-27T15:45:36.765Z,62.58
2022-11-27T15:47:44.383Z,62.92
2022-11-27T15:49:46.508Z,62.99
2022-11-27T15:51:48.707Z,62.64
2022-11-27T15:53:51.088Z,62.73
2022-11-27T15:55:53.386Z,62.83
2022-11-27T15:57:55.355Z,62.71
2022-11-27T15:59:57.767Z,62.65
2022-11-27T16:02:00.116Z,63.16
2022-11-27T16:04:02.688Z,63.07
2022-11-27T16:06:05.949Z,62.79
2022-11-27T16:08:11.280Z,62.72
2022-11-27T16:10:13.746Z,62.80
2022-11-27T16:12:15.865Z,62.63
2022-11-27T16:14:18.130Z,62.71
2022-11-27T16:16:20.377Z,62.62
2022-11-27T16:18:25.502Z,62.65
2022-11-27T16:20:27.758Z,62.29
2022-11-27T16:22:29.620Z,62.85
2022-11-27T16:24:31.971Z,62.65
2022-11-27T16:26:34.582Z,62.92
2022-11-27T16:28:36.792Z,62.96
2022-11-27T16:30:39.033Z,63.07
2022-11-27T16:32:41.547Z,63.10
2022-11-27T16:34:43.684Z,63.33
2022-11-27T16:36:50.121Z,63.06
2022-11-27T16:38:54.750Z,63.10
2022-11-27T16:41:04.142Z,62.96
2022-11-27T16:43:06.477Z,62.79
2022-11-27T16:45:08.916Z,63.16
2022-11-27T16:47:11.548Z,62.95
2022-11-27T16:49:13.897Z,63.01
2022-11-27T16:51:24.851Z,63.01
2022-11-27T16:53:27.557Z,62.78
2022-11-27T16:55:29.626Z,62.78
2022-11-27T16:57:33.644Z,63.02
2022-11-27T16:59:38.425Z,62.95
2022-11-27T17:01:41.928Z,63.03
2022-11-27T17:03:44.152Z,63.25
2022-11-27T17:05:51.231Z,63.16
2022-11-27T17:07:53.554Z,63.17
2022-11-27T17:09:55.548Z,62.79
2022-11-27T17:11:57.625Z,62.96
2022-11-27T17:14:05.592Z,63.16
2022-11-27T17:16:11.337Z,63.13
2022-11-27T17:18:13.436Z,63.27
2022-11-27T17:20:16.267Z,63.46
2022-11-27T17:22:18.730Z,63.33
2022-11-27T17:24:21.008Z,63.32
2022-11-27T17:26:27.626Z,63.27
2022-11-27T17:28:29.731Z,63.43
2022-11-27T17:30:36.397Z,63.32
2022-11-27T17:32:41.222Z,63.24
2022-11-27T17:34:43.392Z,62.89
2022-11-27T17:36:46.010Z,63.08
2022-11-27T17:38:48.748Z,62.92
2022-11-27T17:40:50.604Z,62.86
2022-11-27T17:42:56.639Z,63.36
2022-11-27T17:44:58.736Z,63.19
2022-11-27T17:47:00.762Z,63.17
2022-11-27T17:49:06.172Z,62.74
2022-11-27T17:51:09.469Z,62.55
2022-11-27T17:53:12.443Z,62.72
2022-11-27T17:55:14.558Z,62.39
2022-11-27T17:57:17.349Z,62.79
2022-11-27T17:59:19.779Z,62.63
2022-11-27T18:01:24.693Z,62.56
2022-11-27T18:03:30.321Z,62.76
2022-11-27T18:05:37.165Z,62.41
2022-11-27T18:07:39.863Z,62.32
2022-11-27T18:09:42.840Z,62.64
2022-11-27T18:11:45.091Z,62.73
2022-11-27T18:13:48.029Z,62.70
2022-11-27T18:15:50.092Z,63.02
2022-11-27T18:17:55.187Z,63.21
2022-11-27T18:19:59.215Z,62.94
2022-11-27T18:22:01.641Z,62.97
2022-11-27T18:26:45.494Z,63.18
2022-11-27T18:28:53.331Z,63.11
2022-11-27T18:30:55.889Z,63.14
2022-11-27T18:32:58.082Z,63.31
2022-11-27T18:35:00.247Z,63.34
2022-11-27T18:37:02.812Z,63.08
2022-11-27T18:39:05.168Z,62.89
2022-11-27T18:41:08.209Z,62.72
2022-11-27T18:43:11.557Z,63.03
2022-11-27T18:45:31.736Z,62.80
2022-11-27T18:47:35.214Z,63.04
2022-11-27T18:49:40.628Z,62.89
2022-11-27T18:51:43.489Z,63.06
2022-11-27T18:53:45.988Z,63.03
2022-11-27T18:55:52.651Z,63.54
2022-11-27T18:57:55.087Z,63.01
2022-11-27T18:59:57.298Z,63.11
2022-11-27T19:01:59.653Z,62.97
2022-11-27T19:04:02.952Z,63.17
2022-11-27T19:06:06.747Z,63.09
2022-11-27T19:08:10.590Z,63.33
2022-11-27T19:10:12.926Z,63.26
2022-11-27T19:12:15.312Z,62.93
2022-11-27T19:14:17.399Z,62.78
2022-11-27T19:16:29.808Z,62.93
2022-11-27T19:18:32.283Z,62.90
2022-11-27T19:20:40.371Z,63.07
2022-11-27T19:22:42.938Z,62.78
2022-11-27T19:24:45.137Z,62.57
2022-11-27T19:26:48.757Z,62.44
2022-11-27T19:28:52.786Z,62.75
2022-11-27T19:30:55.280Z,62.85
2022-11-27T19:32:57.734Z,62.86
2022-11-27T19:35:03.088Z,62.97
2022-11-27T19:37:08.980Z,62.94
2022-11-27T19:39:17.451Z,62.79
2022-11-27T19:41:19.667Z,62.71
2022-11-27T19:43:22.007Z,62.85
2022-11-27T19:45:26.837Z,62.94
2022-11-27T19:47:28.862Z,62.82
2022-11-27T19:49:31.282Z,62.84
2022-11-27T19:51:36.226Z,62.87
2022-11-27T19:53:38.767Z,63.15
2022-11-27T19:55:41.925Z,63.18
2022-11-27T19:57:45.681Z,62.94
2022-11-27T19:59:50.349Z,63.06
2022-11-27T20:01:52.429Z,63.14
2022-11-27T20:04:00.177Z,62.78
2022-11-27T20:06:08.010Z,63.33
2022-11-27T20:08:13.797Z,63.26
2022-11-27T20:10:16.084Z,63.04
2022-11-27T20:12:18.121Z,63.00
2022-11-27T20:14:20.318Z,63.13
2022-11-27T20:16:22.494Z,63.06
2022-11-27T20:18:24.659Z,63.34
2022-11-27T20:20:33.839Z,63.32
2022-11-27T20:22:39.007Z,63.32
2022-11-27T20:25:11.216Z,63.53
2022-11-27T20:27:08.845Z,63.57
2022-11-27T20:29:13.252Z,63.21
2022-11-27T20:31:27.515Z,63.67
2022-11-27T20:33:31.489Z,63.04
2022-11-27T20:35:33.794Z,63.57
2022-11-27T20:37:36.015Z,63.62
2022-11-27T20:39:39.048Z,63.41
2022-11-27T20:41:41.664Z,63.24
2022-11-27T20:43:44.637Z,63.29
2022-11-27T20:45:52.683Z,63.42
2022-11-27T20:47:54.729Z,63.47
2022-11-27T20:49:56.749Z,63.12
2022-11-27T20:52:00.225Z,63.40
2022-11-27T20:54:02.900Z,63.35
2022-11-27T20:56:07.058Z,63.48
2022-11-27T20:58:09.222Z,63.37
2022-11-27T21:00:11.816Z,63.66
2022-11-27T21:02:16.768Z,63.25
2022-11-27T21:04:23.994Z,63.41
2022-11-27T21:06:30.345Z,63.21
2022-11-27T21:08:32.970Z,63.33
2022-11-27T21:10:35.462Z,63.28
2022-11-27T21:12:38.938Z,63.28
2022-11-27T21:14:40.889Z,63.47
2022-11-27T21:16:49.830Z,63.29
2022-11-27T21:19:01.868Z,63.46
2022-11-27T21:21:08.740Z,63.59
2022-11-27T21:23:10.828Z,63.41
2022-11-27T21:25:13.107Z,63.25
2022-11-27T21:27:15.245Z,63.65
2022-11-27T21:29:17.953Z,63.28
2022-11-27T21:31:22.533Z,63.43
2022-11-27T21:33:24.900Z,63.49
2022-11-27T21:35:31.589Z,63.27
2022-11-27T21:37:35.544Z,63.46
2022-11-27T21:39:38.662Z,63.40
2022-11-27T21:41:41.015Z,63.75
2022-11-27T21:43:44.421Z,63.65
2022-11-27T21:45:46.679Z,63.68
2022-11-27T21:47:49.077Z,63.70
2022-11-27T21:49:51.400Z,63.34
2022-11-27T21:51:54.571Z,63.76
2022-11-27T21:54:10.677Z,63.67
2022-11-27T21:56:16.358Z,63.82
2022-11-27T21:58:18.507Z,63.55
2022-11-27T22:00:23.586Z,63.73
2022-11-27T22:02:25.974Z,63.81
2022-11-27T22:04:28.055Z,63.84
2022-11-27T22:06:36.003Z,63.56
2022-11-27T22:08:40.194Z,63.85
2022-11-27T22:10:42.489Z,64.03
2022-11-27T22:12:44.652Z,64.33
2022-11-27T22:14:50.206Z,64.27
2022-11-27T22:16:52.481Z,63.76
2022-11-27T22:18:57.986Z,64.11
2022-11-27T22:21:05.089Z,63.89
2022-11-27T22:23:07.868Z,63.91
2022-11-27T22:25:10.403Z,63.93
2022-11-27T22:27:15.704Z,64.26
2022-11-27T22:29:18.584Z,63.94
2022-11-27T22:31:25.400Z,63.85
2022-11-27T22:33:31.097Z,63.82
2022-11-27T22:35:33.418Z,64.06
2022-11-27T22:37:35.638Z,63.85
2022-11-27T22:39:37.989Z,63.73
2022-11-27T22:41:40.798Z,64.21
2022-11-27T22:43:45.114Z,64.07
2022-11-27T22:45:48.475Z,64.06
2022-11-27T22:47:50.935Z,63.88
2022-11-27T22:49:55.490Z,64.10
2022-11-27T22:51:57.950Z,64.02
2022-11-27T22:54:01.427Z,63.76
2022-11-27T22:56:09.033Z,63.66
2022-11-27T22:58:11.353Z,63.78
2022-11-27T23:00:14.631Z,63.98
2022-11-27T23:02:21.291Z,63.76
2022-11-27T23:04:23.299Z,63.79
2022-11-27T23:06:25.913Z,63.70
2022-11-27T23:08:28.156Z,63.95
2022-11-27T23:10:30.383Z,63.79
2022-11-27T23:12:32.591Z,63.77
2022-11-27T23:14:35.562Z,63.54
2022-11-27T23:16:37.786Z,64.06
2022-11-27T23:18:40.523Z,63.95
2022-11-27T23:20:43.801Z,63.75
2022-11-27T23:22:45.943Z,63.99
2022-11-27T23:24:48.246Z,63.80
2022-11-27T23:26:50.427Z,63.60
2022-11-27T23:28:53.704Z,63.93
2022-11-27T23:31:09.011Z,63.62
2022-11-27T23:33:18.070Z,63.85
2022-11-27T23:35:20.331Z,63.56
2022-11-27T23:37:22.532Z,63.75
2022-11-27T23:39:24.884Z,63.91
2022-11-27T23:46:44.978Z,64.77
2022-11-27T23:48:47.214Z,64.50
2022-11-27T23:50:49.397Z,64.06
2022-11-27T23:52:54.029Z,64.21
2022-11-27T23:54:56.125Z,64.17
2022-11-27T23:56:58.340Z,64.38
2022-11-27T23:59:00.915Z,64.22
